Time;durP1;ratioP1;P1;durP2;ratioP2;P2;SDS_P1;SDS_P2;PMS_P1;PMS_P2;Temp;Humidity;BMP_temperature;BMP_pressure;BME280_temperature;BME280_humidity;BME280_pressure;Samples;Min_cycle;Max_cycle;Signal;HPM_P1;HPM_P2
2022/02/12 00:00:01;;;;;;;19.03;18.13;;;6.10;69.60;;;;;;4961025;28;20470;-87
2022/02/12 00:02:27;;;;;;;18.93;18.03;;;6.10;69.50;;;;;;4967677;28;20035;-86
2022/02/12 00:04:53;;;;;;;18.93;18.03;;;6.10;69.50;;;;;;4973229;28;20038;-85
2022/02/12 00:07:19;;;;;;;18.30;17.40;;;6.20;69.60;;;;;;4972622;28;20034;-86
2022/02/12 00:09:45;;;;;;;18.30;17.50;;;6.10;69.50;;;;;;4971138;28;20031;-86
2022/02/12 00:12:11;;;;;;;18.80;17.90;;;6.20;69.50;;;;;;4970066;28;20390;-86
2022/02/12 00:14:38;;;;;;;17.17;16.37;;;6.10;69.50;;;;;;4972316;28;20119;-86
2022/02/12 00:17:04;;;;;;;19.00;18.10;;;6.20;69.60;;;;;;4971377;28;20041;-85
2022/02/12 00:19:30;;;;;;;17.97;17.17;;;6.10;69.50;;;;;;4972271;28;20389;-86
2022/02/12 00:21:56;;;;;;;19.03;18.13;;;6.10;70.30;;;;;;4972929;28;20018;-86
2022/02/12 00:24:22;;;;;;;18.87;17.97;;;6.10;69.70;;;;;;4963059;28;20521;-86
2022/02/12 00:26:48;;;;;;;18.83;17.80;;;6.00;69.60;;;;;;4972419;28;20030;-86
2022/02/12 00:29:14;;;;;;;19.43;18.33;;;6.00;69.80;;;;;;4971745;28;20035;-86
2022/02/12 00:31:40;;;;;;;19.50;18.40;;;5.90;69.80;;;;;;4966584;28;20036;-87
2022/02/12 00:34:06;;;;;;;19.03;18.13;;;5.90;69.80;;;;;;4961968;28;20034;-86
2022/02/12 00:36:32;;;;;;;18.33;17.50;;;5.90;69.90;;;;;;4969247;28;20477;-86
2022/02/12 00:38:58;;;;;;;17.90;17.10;;;5.90;69.90;;;;;;4972501;28;20030;-86
2022/02/12 00:41:25;;;;;;;18.90;17.87;;;5.90;70.00;;;;;;4972363;28;20039;-86
2022/02/12 00:43:51;;;;;;;19.20;18.30;;;5.80;69.90;;;;;;4969607;28;20415;-86
2022/02/12 00:46:17;;;;;;;18.60;17.70;;;5.80;70.00;;;;;;4964207;28;20038;-86
2022/02/12 00:48:43;;;;;;;18.87;17.97;;;5.80;70.00;;;;;;4959268;28;20039;-87
2022/02/12 00:51:09;;;;;;;17.97;17.17;;;5.80;70.00;;;;;;4971985;28;20073;-87
2022/02/12 00:53:35;;;;;;;17.60;16.80;;;5.80;70.00;;;;;;4970283;28;20391;-87
2022/02/12 00:56:01;;;;;;;18.27;17.47;;;5.70;70.00;;;;;;4971084;28;20066;-86
2022/02/12 00:58:27;;;;;;;18.13;17.33;;;5.70;70.10;;;;;;4970573;28;20027;-86
2022/02/12 01:00:53;;;;;;;17.97;17.17;;;5.60;70.20;;;;;;4970693;28;20037;-86
2022/02/12 01:03:19;;;;;;;17.30;16.50;;;5.60;70.30;;;;;;4965831;28;20058;-88
2022/02/12 01:05:45;;;;;;;17.10;16.30;;;5.50;70.40;;;;;;4973263;28;20030;-86
2022/02/12 01:08:11;;;;;;;17.87;17.07;;;5.40;70.40;;;;;;4970030;28;20100;-86
2022/02/12 01:10:38;;;;;;;17.50;16.70;;;5.40;70.50;;;;;;4970935;28;20027;-86
2022/02/12 01:13:04;;;;;;;18.33;17.53;;;5.30;70.60;;;;;;4971304;28;20054;-86
2022/02/12 01:15:32;;;;;;;17.80;17.00;;;5.30;70.80;;;;;;4970687;28;20043;-86
2022/02/12 01:17:58;;;;;;;17.77;16.97;;;5.20;70.80;;;;;;4970989;28;20473;-86
2022/02/12 01:20:24;;;;;;;18.93;17.93;;;5.20;70.90;;;;;;4952849;28;20506;-87
2022/02/12 01:22:50;;;;;;;17.57;16.77;;;5.10;70.90;;;;;;4968076;28;20367;-86
2022/02/12 01:25:16;;;;;;;17.90;17.10;;;5.20;71.00;;;;;;4972336;28;20043;-87
2022/02/12 01:27:43;;;;;;;17.10;16.30;;;5.20;70.90;;;;;;4971358;28;20416;-87
2022/02/12 01:30:09;;;;;;;18.40;17.50;;;5.20;70.80;;;;;;4974439;28;20509;-86
2022/02/12 01:32:35;;;;;;;16.60;15.80;;;5.30;70.80;;;;;;4973094;28;20393;-87
2022/02/12 01:35:01;;;;;;;17.33;16.53;;;5.30;70.70;;;;;;4974559;28;20050;-86
2022/02/12 01:37:28;;;;;;;17.17;16.37;;;5.30;70.70;;;;;;4975663;28;20038;-86
2022/02/12 01:39:54;;;;;;;18.60;17.70;;;5.30;70.60;;;;;;4969614;28;20047;-87
2022/02/12 01:42:20;;;;;;;16.63;15.83;;;5.40;70.60;;;;;;4973166;28;20038;-86
2022/02/12 01:44:46;;;;;;;19.10;18.10;;;5.40;70.60;;;;;;4974274;28;20038;-87
2022/02/12 01:47:12;;;;;;;18.20;17.37;;;5.30;70.60;;;;;;4971832;28;20042;-85
2022/02/12 01:49:39;;;;;;;18.07;17.27;;;5.30;70.60;;;;;;4973171;28;20425;-87
2022/02/12 01:52:08;;;;;;;18.27;17.37;;;5.30;70.60;;;;;;4973775;28;20055;-86
2022/02/12 01:54:34;;;;;;;18.00;17.20;;;5.30;70.60;;;;;;4975588;28;20030;-86
2022/02/12 01:57:01;;;;;;;19.00;18.10;;;5.30;70.60;;;;;;4975331;28;20035;-87
2022/02/12 01:59:27;;;;;;;18.27;17.47;;;5.30;70.70;;;;;;4972857;28;20477;-86
2022/02/12 02:01:53;;;;;;;18.80;17.70;;;5.30;70.60;;;;;;4975009;28;20038;-87
2022/02/12 02:04:19;;;;;;;17.33;16.53;;;5.30;70.70;;;;;;4972331;28;20042;-86
2022/02/12 02:06:47;;;;;;;18.37;17.53;;;5.30;70.80;;;;;;4959055;28;20501;-86
2022/02/12 02:09:17;;;;;;;19.50;18.37;;;5.30;70.70;;;;;;4972243;28;20508;-86
2022/02/12 02:11:43;;;;;;;18.33;17.47;;;5.30;70.80;;;;;;4972866;28;20047;-86
2022/02/12 02:14:10;;;;;;;18.60;17.70;;;5.30;70.70;;;;;;4971608;28;20042;-86
2022/02/12 02:16:37;;;;;;;17.57;16.77;;;5.20;70.70;;;;;;4974283;28;20490;-86
2022/02/12 02:19:03;;;;;;;18.43;17.60;;;5.20;70.80;;;;;;4974261;28;20049;-86
2022/02/12 02:21:30;;;;;;;19.27;18.27;;;5.20;70.80;;;;;;4971366;28;20045;-87
2022/02/12 02:23:56;;;;;;;17.47;16.67;;;5.20;70.90;;;;;;4970991;28;20022;-86
2022/02/12 02:26:22;;;;;;;17.70;16.90;;;5.10;70.90;;;;;;4973760;28;20042;-86
2022/02/12 02:28:48;;;;;;;18.00;17.20;;;5.10;70.90;;;;;;4969626;28;20023;-86
2022/02/12 02:31:14;;;;;;;17.87;17.07;;;5.10;71.00;;;;;;4973858;28;20398;-86
2022/02/12 02:33:40;;;;;;;17.40;16.60;;;5.00;70.90;;;;;;4975028;28;20400;-86
2022/02/12 02:36:07;;;;;;;17.50;16.70;;;5.00;71.00;;;;;;4972296;28;20517;-86
2022/02/12 02:38:33;;;;;;;17.57;16.77;;;5.00;71.20;;;;;;4955027;28;20026;-86
2022/02/12 02:40:59;;;;;;;18.10;17.30;;;4.90;71.30;;;;;;4969757;28;20045;-86
2022/02/12 02:43:25;;;;;;;17.97;17.07;;;4.90;71.40;;;;;;4973902;28;20055;-86
2022/02/12 02:45:52;;;;;;;19.00;17.70;;;4.80;71.30;;;;;;4974142;28;20039;-86
2022/02/12 02:48:18;;;;;;;18.43;17.63;;;4.80;71.40;;;;;;4960846;28;20060;-87
2022/02/12 02:56:13;;;;;;;18.17;17.37;;;4.70;71.70;;;;;;4972325;28;20421;-86
2022/02/12 02:58:43;;;;;;;17.70;16.80;;;4.60;71.80;;;;;;4972596;28;20031;-86
2022/02/12 03:01:11;;;;;;;18.03;17.23;;;4.60;71.80;;;;;;4930695;28;20042;-86
2022/02/12 03:03:38;;;;;;;17.77;16.97;;;4.60;71.80;;;;;;4969224;28;20283;-86
2022/02/12 03:06:04;;;;;;;17.67;16.87;;;4.60;71.80;;;;;;4965892;28;20042;-86
2022/02/12 03:08:30;;;;;;;18.30;17.40;;;4.60;71.80;;;;;;4963712;28;20042;-86
2022/02/12 03:10:57;;;;;;;18.13;17.33;;;4.60;71.80;;;;;;4962974;28;20043;-86
2022/02/12 03:13:23;;;;;;;17.83;17.03;;;4.60;71.80;;;;;;4960786;28;20052;-86
2022/02/12 03:15:49;;;;;;;17.40;16.60;;;4.50;71.70;;;;;;4968691;28;20380;-87
2022/02/12 03:18:15;;;;;;;16.77;15.97;;;4.50;71.80;;;;;;4969015;28;20393;-87
2022/02/12 03:20:41;;;;;;;18.77;17.87;;;4.50;71.90;;;;;;4970273;28;20030;-87
2022/02/12 03:23:07;;;;;;;17.63;16.83;;;4.50;71.90;;;;;;4966252;28;20042;-87
2022/02/12 03:25:33;;;;;;;19.07;18.10;;;4.40;71.90;;;;;;4969221;28;20027;-86
2022/02/12 03:28:02;;;;;;;19.17;18.27;;;4.40;72.00;;;;;;4969395;28;20425;-87
2022/02/12 03:30:30;;;;;;;19.53;18.53;;;4.40;72.10;;;;;;4952596;28;20054;-87
2022/02/12 03:32:56;;;;;;;17.50;16.70;;;4.40;72.20;;;;;;4967123;28;20039;-86
2022/02/12 03:35:28;;;;;;;17.47;16.67;;;4.30;72.20;;;;;;4968639;28;20036;-88
2022/02/12 03:38:04;;;;;;;19.77;18.43;;;4.30;72.20;;;;;;4969333;28;20031;-87
2022/02/12 03:40:30;;;;;;;17.57;16.77;;;4.30;72.30;;;;;;4969352;28;20103;-87
2022/02/12 03:42:56;;;;;;;18.60;17.70;;;4.30;72.30;;;;;;4970242;28;20394;-87
2022/02/12 03:45:23;;;;;;;18.20;17.40;;;4.20;72.40;;;;;;4963811;28;20505;-87
2022/02/12 03:47:49;;;;;;;17.17;16.37;;;4.20;72.30;;;;;;4973398;28;20406;-87
2022/02/12 03:50:16;;;;;;;17.73;16.93;;;4.10;72.30;;;;;;4972570;28;20418;-85
2022/02/12 03:52:42;;;;;;;17.53;16.73;;;4.10;73.30;;;;;;4971942;28;20049;-87
2022/02/12 03:55:08;;;;;;;16.97;16.17;;;4.20;72.50;;;;;;4971441;28;20041;-87
2022/02/12 03:57:37;;;;;;;19.27;18.27;;;4.20;72.40;;;;;;4964561;28;20051;-87
2022/02/12 04:00:07;;;;;;;17.03;16.23;;;4.20;72.40;;;;;;4972277;28;20041;-87
2022/02/12 04:02:33;;;;;;;18.03;17.23;;;4.20;72.40;;;;;;4973850;28;20045;-87
2022/02/12 04:04:59;;;;;;;19.53;18.63;;;4.10;72.40;;;;;;4971256;28;20234;-87
2022/02/12 04:07:25;;;;;;;17.67;16.87;;;4.10;72.50;;;;;;4972573;28;20405;-87
2022/02/12 04:09:51;;;;;;;16.67;15.87;;;4.10;72.50;;;;;;4968377;28;20050;-87
2022/02/12 04:12:18;;;;;;;18.47;17.63;;;4.00;72.50;;;;;;4972093;28;20047;-87
2022/02/12 04:14:44;;;;;;;17.97;17.07;;;4.00;72.70;;;;;;4957875;28;20394;-86
2022/02/12 04:17:10;;;;;;;16.77;15.97;;;4.00;72.80;;;;;;4970197;28;20050;-87
2022/02/12 04:19:36;;;;;;;18.57;17.57;;;3.90;72.80;;;;;;4972122;28;20429;-87
2022/02/12 04:22:02;;;;;;;18.33;17.47;;;3.90;72.80;;;;;;4971070;28;20035;-86
2022/02/12 04:24:28;;;;;;;17.93;17.03;;;3.90;72.90;;;;;;4972173;28;20027;-87
2022/02/12 04:26:54;;;;;;;18.50;17.70;;;3.90;72.90;;;;;;4970603;28;20366;-87
2022/02/12 04:29:21;;;;;;;18.13;17.23;;;3.80;73.00;;;;;;4971967;28;20034;-87
2022/02/12 04:31:47;;;;;;;17.93;17.13;;;3.80;73.00;;;;;;4971458;28;20057;-88
2022/02/12 04:34:13;;;;;;;17.83;17.03;;;3.80;73.10;;;;;;4970958;28;20049;-88
2022/02/12 04:36:39;;;;;;;17.83;17.03;;;3.80;73.10;;;;;;4970826;28;20050;-88
2022/02/12 04:39:05;;;;;;;17.47;16.67;;;3.80;73.10;;;;;;4967478;28;20031;-87
2022/02/12 04:41:31;;;;;;;18.97;18.07;;;3.80;73.00;;;;;;4970914;28;20027;-89
2022/02/12 04:43:57;;;;;;;18.10;17.20;;;3.90;72.90;;;;;;4967597;28;20034;-88
2022/02/12 04:46:23;;;;;;;18.47;17.57;;;3.90;72.90;;;;;;4966141;28;20043;-88
2022/02/12 04:48:49;;;;;;;18.60;17.70;;;3.90;72.90;;;;;;4958827;28;20111;-87
2022/02/12 04:51:16;;;;;;;18.20;17.30;;;3.90;72.90;;;;;;4972013;28;20065;-89
2022/02/12 04:53:43;;;;;;;17.97;17.17;;;3.80;72.90;;;;;;4973134;28;20497;-86
2022/02/12 04:56:09;;;;;;;18.27;17.47;;;3.90;72.90;;;;;;4971749;28;20061;-88
2022/02/12 04:58:35;;;;;;;17.87;17.07;;;3.90;72.90;;;;;;4971259;28;20027;-87
2022/02/12 05:01:01;;;;;;;18.47;17.57;;;3.90;72.90;;;;;;4972058;28;20049;-89
2022/02/12 05:03:27;;;;;;;18.67;17.77;;;3.90;72.80;;;;;;4956517;28;20039;-89
2022/02/12 05:05:53;;;;;;;17.60;16.80;;;3.90;72.80;;;;;;4972770;28;20047;-87
2022/02/12 05:08:19;;;;;;;17.97;17.17;;;4.00;72.90;;;;;;4972975;28;20046;-89
2022/02/12 05:10:45;;;;;;;18.23;17.43;;;3.90;72.80;;;;;;4973380;28;20050;-90
2022/02/12 05:13:12;;;;;;;16.90;16.10;;;3.90;72.70;;;;;;4976297;28;20035;-90
2022/02/12 05:15:38;;;;;;;18.07;17.10;;;3.90;72.70;;;;;;4975660;28;20398;-89
2022/02/12 05:18:04;;;;;;;17.70;16.90;;;3.90;72.80;;;;;;4968920;28;20034;-88
2022/02/12 05:20:30;;;;;;;16.90;16.10;;;3.90;72.80;;;;;;4974635;28;20031;-89
2022/02/12 05:22:56;;;;;;;17.47;16.67;;;3.80;72.80;;;;;;4972016;28;20023;-86
2022/02/12 05:25:22;;;;;;;17.73;16.93;;;3.80;72.90;;;;;;4974929;28;20027;-88
2022/02/12 05:27:48;;;;;;;17.50;16.60;;;3.70;73.00;;;;;;4973661;28;20045;-87
2022/02/12 05:30:14;;;;;;;17.17;16.37;;;3.70;73.00;;;;;;4974343;28;20593;-87
2022/02/12 05:32:40;;;;;;;17.40;16.60;;;3.70;73.00;;;;;;4973969;28;20035;-85
2022/02/12 05:35:07;;;;;;;17.90;17.07;;;3.60;73.00;;;;;;4974471;28;20500;-85
2022/02/12 05:37:33;;;;;;;16.83;16.03;;;3.60;73.80;;;;;;4973873;28;20038;-85
2022/02/12 05:39:59;;;;;;;17.93;17.13;;;3.60;73.10;;;;;;4966466;28;20054;-85
2022/02/12 05:42:25;;;;;;;17.90;17.10;;;3.60;73.00;;;;;;4973690;28;20046;-85
2022/02/12 05:44:53;;;;;;;17.37;16.57;;;3.60;73.00;;;;;;4975921;28;20035;-84
2022/02/12 05:47:19;;;;;;;17.60;16.80;;;3.60;73.10;;;;;;4970933;28;20038;-83
2022/02/12 05:49:45;;;;;;;17.80;17.00;;;3.60;73.00;;;;;;4974525;28;20039;-83
2022/02/12 05:52:11;;;;;;;17.97;17.03;;;3.60;73.00;;;;;;4971657;28;20051;-84
2022/02/12 05:54:38;;;;;;;17.50;16.70;;;3.60;73.10;;;;;;4961169;28;20042;-87
2022/02/12 05:57:04;;;;;;;17.60;16.80;;;3.60;73.10;;;;;;4974114;28;20081;-84
2022/02/12 05:59:30;;;;;;;18.07;17.17;;;3.60;73.10;;;;;;4965683;28;20422;-89
2022/02/12 06:01:57;;;;;;;17.90;17.10;;;3.60;73.10;;;;;;4967020;28;20048;-90
2022/02/12 06:04:23;;;;;;;17.80;17.00;;;3.60;73.10;;;;;;5106604;23;20718;-94
2022/02/12 06:06:49;;;;;;;18.43;17.53;;;3.60;73.30;;;;;;4974802;28;20494;-91
2022/02/12 06:09:15;;;;;;;17.00;16.20;;;3.70;73.20;;;;;;4954609;28;20035;-90
2022/02/12 06:11:41;;;;;;;17.87;17.07;;;3.80;72.90;;;;;;4954663;29;20042;-90
2022/02/12 06:14:07;;;;;;;17.67;16.87;;;3.80;72.70;;;;;;4955143;28;20047;-90
2022/02/12 06:16:33;;;;;;;17.90;17.10;;;3.70;72.80;;;;;;4950213;28;20506;-89
2022/02/12 06:18:59;;;;;;;18.80;17.90;;;3.70;72.90;;;;;;4953851;28;20497;-91
2022/02/12 06:21:26;;;;;;;20.33;19.07;;;3.60;72.90;;;;;;4968959;28;20042;-91
2022/02/12 06:23:52;;;;;;;17.40;16.60;;;3.50;73.00;;;;;;4955759;28;20031;-90
2022/02/12 06:26:18;;;;;;;17.47;16.67;;;3.50;73.10;;;;;;4955890;28;20039;-90
2022/02/12 06:28:44;;;;;;;17.90;17.10;;;3.40;73.10;;;;;;4950105;29;20049;-91
2022/02/12 06:31:10;;;;;;;17.60;16.80;;;3.40;73.30;;;;;;4943679;28;20490;-91
2022/02/12 06:33:36;;;;;;;18.20;17.40;;;3.40;73.30;;;;;;4967232;28;20046;-91
2022/02/12 06:36:03;;;;;;;18.23;17.33;;;3.40;73.30;;;;;;4955377;28;20051;-91
2022/02/12 06:38:29;;;;;;;17.90;17.10;;;3.30;73.30;;;;;;4947476;29;20031;-90
2022/02/12 06:40:55;;;;;;;16.63;15.83;;;3.40;73.30;;;;;;4957348;28;20129;-91
2022/02/12 06:43:21;;;;;;;18.20;17.40;;;3.30;73.30;;;;;;4952635;28;20390;-90
2022/02/12 06:45:47;;;;;;;17.93;17.13;;;3.30;73.30;;;;;;4941478;28;20414;-90
2022/02/12 06:48:13;;;;;;;17.37;16.47;;;3.30;73.30;;;;;;4967800;28;20043;-90
2022/02/12 06:50:39;;;;;;;17.90;17.10;;;3.30;73.40;;;;;;4943801;29;20032;-91
2022/02/12 06:53:06;;;;;;;17.73;16.90;;;3.30;73.40;;;;;;4951930;28;20042;-89
2022/02/12 06:55:32;;;;;;;17.87;17.07;;;3.30;73.40;;;;;;4953975;28;20023;-90
2022/02/12 06:57:58;;;;;;;17.17;16.37;;;3.30;73.40;;;;;;4956695;28;20039;-91
2022/02/12 07:00:24;;;;;;;18.00;17.20;;;3.30;73.40;;;;;;4949408;28;20058;-85
2022/02/12 07:02:53;;;;;;;17.53;16.73;;;3.30;73.40;;;;;;4955236;29;20390;-86
2022/02/12 07:05:19;;;;;;;17.43;16.63;;;3.30;73.40;;;;;;4950901;28;20058;-87
2022/02/12 07:07:46;;;;;;;18.87;17.77;;;3.30;73.50;;;;;;4948218;28;20031;-89
2022/02/12 07:10:13;;;;;;;17.07;16.27;;;3.30;73.40;;;;;;4943870;28;20062;-86
2022/02/12 07:12:39;;;;;;;17.80;16.70;;;3.30;73.50;;;;;;4948461;28;20062;-86
2022/02/12 07:15:06;;;;;;;18.03;17.00;;;3.20;73.40;;;;;;4953374;28;20042;-86
2022/02/12 07:17:32;;;;;;;17.77;16.97;;;3.20;73.50;;;;;;4951964;28;20047;-85
2022/02/12 07:19:59;;;;;;;17.47;16.47;;;3.20;73.60;;;;;;4954653;29;20042;-85
2022/02/12 07:22:26;;;;;;;16.97;16.17;;;3.20;73.60;;;;;;4954547;28;20051;-85
2022/02/12 07:24:52;;;;;;;17.93;16.83;;;3.20;73.50;;;;;;4957797;28;20044;-84
2022/02/12 07:27:19;;;;;;;16.73;15.93;;;3.10;73.60;;;;;;4937950;28;20047;-89
2022/02/12 07:29:45;;;;;;;17.90;16.83;;;3.10;73.70;;;;;;4939816;29;20051;-86
2022/02/12 07:32:11;;;;;;;17.33;16.53;;;3.10;73.60;;;;;;4951793;28;20035;-88
2022/02/12 07:34:37;;;;;;;17.87;16.97;;;3.10;73.80;;;;;;4961999;28;20034;-88
2022/02/12 07:37:03;;;;;;;17.40;16.60;;;3.10;73.50;;;;;;4952804;28;20055;-85
2022/02/12 07:39:29;;;;;;;16.67;15.87;;;3.10;73.50;;;;;;4958095;28;20475;-82
2022/02/12 07:41:55;;;;;;;16.87;16.07;;;3.20;73.50;;;;;;4955010;28;20042;-84
2022/02/12 07:44:21;;;;;;;18.53;17.63;;;3.20;73.50;;;;;;4948339;28;20039;-88
2022/02/12 07:46:47;;;;;;;17.40;16.60;;;3.20;73.60;;;;;;4943223;28;20509;-87
2022/02/12 07:49:13;;;;;;;17.50;16.70;;;3.20;73.50;;;;;;4940146;28;20047;-85
2022/02/12 07:51:40;;;;;;;17.47;16.67;;;3.20;73.50;;;;;;4953007;29;20402;-86
2022/02/12 07:54:06;;;;;;;18.17;17.33;;;3.20;73.50;;;;;;4948420;28;20031;-91
2022/02/12 07:56:32;;;;;;;18.10;17.20;;;3.20;73.50;;;;;;4949974;28;20047;-89
2022/02/12 07:58:58;;;;;;;18.07;16.93;;;3.20;73.50;;;;;;4953629;29;20050;-89
2022/02/12 08:01:24;;;;;;;19.07;17.73;;;3.20;73.50;;;;;;4953835;28;20411;-88
2022/02/12 08:03:50;;;;;;;17.83;16.97;;;3.20;73.50;;;;;;4954374;29;20042;-84
2022/02/12 08:09:01;;;;;;;17.80;17.00;;;3.20;73.50;;;;;;4965607;28;20497;-85
2022/02/12 08:11:30;;;;;;;17.53;16.73;;;3.20;73.50;;;;;;4954397;28;20047;-86
2022/02/12 08:13:56;;;;;;;18.70;17.80;;;3.20;73.60;;;;;;4953087;28;20058;-86
2022/02/12 08:16:23;;;;;;;19.80;18.80;;;3.60;73.80;;;;;;4949374;28;20039;-85
2022/02/12 08:18:49;;;;;;;19.43;18.53;;;4.20;73.10;;;;;;4940831;29;20034;-85
2022/02/12 08:21:15;;;;;;;20.67;19.67;;;5.10;71.60;;;;;;4945128;28;20036;-83
2022/02/12 08:23:41;;;;;;;19.67;18.77;;;6.10;69.70;;;;;;4941803;29;20131;-83
2022/02/12 08:26:07;;;;;;;1339.03;672.10;;;7.00;67.90;;;;;;4963017;28;20502;-84
2022/02/12 08:28:34;;;;;;;1999.90;999.90;;;7.70;67.30;;;;;;4953936;28;20038;-85
2022/02/12 08:31:00;;;;;;;1999.90;999.90;;;8.30;65.70;;;;;;4953888;28;20500;-84
2022/02/12 08:33:26;;;;;;;1999.90;999.90;;;8.90;65.00;;;;;;4952664;29;20042;-85
2022/02/12 08:35:52;;;;;;;1999.90;999.90;;;9.40;64.60;;;;;;4946322;28;20025;-84
2022/02/12 08:38:18;;;;;;;1999.90;999.90;;;9.70;64.20;;;;;;4946636;28;20417;-83
2022/02/12 08:40:44;;;;;;;1999.90;999.90;;;9.90;64.30;;;;;;4955590;28;20031;-82
2022/02/12 08:43:12;;;;;;;1999.90;999.90;;;9.90;64.70;;;;;;4953065;28;20062;-84
2022/02/12 08:45:38;;;;;;;1999.90;999.90;;;9.90;65.30;;;;;;4965597;28;20043;-83
2022/02/12 08:48:06;;;;;;;1999.90;999.90;;;10.30;65.60;;;;;;4931035;29;20052;-86
2022/02/12 08:50:32;;;;;;;1999.90;999.90;;;10.60;65.30;;;;;;4939464;28;20032;-86
2022/02/12 08:52:58;;;;;;;1999.90;999.90;;;11.00;64.90;;;;;;4962213;28;20043;-85
2022/02/12 08:55:24;;;;;;;1999.90;999.90;;;11.20;64.50;;;;;;4950889;29;20039;-85
2022/02/12 08:57:50;;;;;;;1999.90;999.90;;;11.50;64.30;;;;;;4938229;28;20039;-84
2022/02/12 09:00:17;;;;;;;1999.90;999.90;;;11.70;63.90;;;;;;4943923;28;20032;-83
2022/02/12 09:02:43;;;;;;;1999.90;999.90;;;11.80;63.90;;;;;;4934951;29;20055;-84
2022/02/12 09:05:09;;;;;;;1999.90;999.90;;;11.80;64.00;;;;;;4948308;28;20501;-83
2022/02/12 09:07:35;;;;;;;1999.90;999.90;;;11.70;63.90;;;;;;4954199;28;20032;-81
2022/02/12 09:10:02;;;;;;;1999.90;999.90;;;11.40;63.70;;;;;;4949975;28;20035;-81
2022/02/12 09:12:28;;;;;;;1999.90;999.90;;;10.90;64.00;;;;;;4951813;28;20402;-84
2022/02/12 09:14:54;;;;;;;1999.90;999.90;;;10.40;64.70;;;;;;4953389;29;20494;-84
2022/02/12 09:17:20;;;;;;;1999.90;999.90;;;10.10;65.40;;;;;;4934577;28;20059;-83
2022/02/12 09:19:47;;;;;;;1999.90;999.90;;;9.90;65.90;;;;;;4951830;28;20027;-83
2022/02/12 09:22:13;;;;;;;1999.90;999.90;;;9.60;67.20;;;;;;4949568;28;20047;-83
2022/02/12 09:24:39;;;;;;;1999.90;999.90;;;9.50;66.60;;;;;;4949308;29;20035;-83
2022/02/12 09:27:05;;;;;;;1999.90;999.90;;;9.40;66.20;;;;;;4954963;28;20039;-82
2022/02/12 09:29:31;;;;;;;1999.90;999.90;;;9.10;66.20;;;;;;4951335;29;20036;-86
2022/02/12 09:31:57;;;;;;;1999.90;999.90;;;9.30;66.80;;;;;;4950302;28;20479;-83
2022/02/12 09:34:23;;;;;;;1999.90;999.90;;;9.40;66.20;;;;;;4951153;28;20039;-83
2022/02/12 09:36:49;;;;;;;1999.90;999.90;;;9.60;65.40;;;;;;4951078;29;20411;-83
2022/02/12 09:39:16;;;;;;;1999.90;999.90;;;9.70;64.90;;;;;;4961080;28;20074;-85
2022/02/12 09:41:44;;;;;;;1999.90;999.90;;;9.80;65.00;;;;;;4951782;28;20052;-85
2022/02/12 09:44:10;;;;;;;1999.90;999.90;;;9.90;64.80;;;;;;4956764;28;20501;-86
2022/02/12 09:46:58;;;;;;;1999.90;999.90;;;10.00;64.60;;;;;;4955218;28;20039;-82
2022/02/12 09:49:24;;;;;;;1999.90;999.90;;;10.00;64.50;;;;;;4954196;28;20031;-83
2022/02/12 09:51:51;;;;;;;1999.90;999.90;;;9.70;64.50;;;;;;4959243;28;20027;-86
2022/02/12 09:54:17;;;;;;;1999.90;999.90;;;9.40;64.90;;;;;;4956445;28;20030;-83
2022/02/12 09:56:43;;;;;;;1999.90;999.90;;;9.10;64.90;;;;;;4962202;28;20411;-80
2022/02/12 09:59:09;;;;;;;1999.90;999.90;;;8.80;65.20;;;;;;4957794;28;20047;-82
2022/02/12 10:01:39;;;;;;;1999.90;999.90;;;8.50;65.50;;;;;;4953639;28;20502;-86
2022/02/12 10:04:16;;;;;;;1999.90;999.90;;;8.40;65.80;;;;;;4956018;29;20035;-85
2022/02/12 10:06:43;;;;;;;1999.90;999.90;;;8.20;65.60;;;;;;4939488;29;20066;-84
2022/02/12 10:09:09;;;;;;;1999.90;999.90;;;8.10;65.60;;;;;;4953477;29;20386;-84
2022/02/12 10:11:43;;;;;;;1999.90;999.90;;;8.00;65.70;;;;;;4954268;29;20046;-87
2022/02/12 10:14:13;;;;;;;1999.90;999.90;;;8.10;65.80;;;;;;4942411;28;20507;-83
2022/02/12 10:16:53;;;;;;;1999.90;999.90;;;8.20;65.60;;;;;;4948432;28;20043;-82
2022/02/12 10:19:28;;;;;;;1999.90;999.90;;;8.30;65.40;;;;;;4952815;28;20382;-85
2022/02/12 10:22:15;;;;;;;1999.90;999.90;;;8.40;65.30;;;;;;4959370;28;20051;-81
2022/02/12 10:24:52;;;;;;;1999.90;999.90;;;8.60;65.10;;;;;;4943307;28;20039;-84
2022/02/12 10:27:25;;;;;;;1999.90;999.90;;;8.90;64.50;;;;;;4938473;28;20516;-85
2022/02/12 10:29:53;;;;;;;1999.90;999.90;;;9.20;63.60;;;;;;4939166;29;20043;-85
2022/02/12 10:32:21;;;;;;;1999.90;999.90;;;9.30;63.10;;;;;;4951528;28;20047;-86
2022/02/12 10:34:48;;;;;;;1999.90;999.90;;;9.20;62.90;;;;;;4944723;28;20038;-84
2022/02/12 10:37:20;;;;;;;1999.90;999.90;;;9.10;62.80;;;;;;4955718;28;20034;-85
2022/02/12 10:39:57;;;;;;;1999.90;999.90;;;9.10;63.30;;;;;;4968676;28;20031;-82
2022/02/12 10:42:25;;;;;;;1999.90;999.90;;;9.00;62.90;;;;;;4954081;28;20023;-83
2022/02/12 10:44:51;;;;;;;1999.90;999.90;;;9.00;62.80;;;;;;4955164;28;20051;-83
2022/02/12 10:47:17;;;;;;;1999.90;999.90;;;9.20;62.50;;;;;;4956892;28;20031;-82
2022/02/12 10:49:44;;;;;;;1999.90;999.90;;;9.20;62.10;;;;;;4953930;28;20501;-81
2022/02/12 10:52:10;;;;;;;1999.90;999.90;;;9.30;62.10;;;;;;4953462;28;20031;-81
2022/02/12 10:54:47;;;;;;;1999.90;999.90;;;9.30;62.10;;;;;;4961176;28;20042;-82
2022/02/12 10:57:13;;;;;;;1999.90;999.90;;;9.30;62.30;;;;;;4940423;28;20040;-80
2022/02/12 10:59:42;;;;;;;1999.90;999.90;;;9.60;62.50;;;;;;4954822;29;20039;-82
2022/02/12 11:02:09;;;;;;;1999.90;999.90;;;9.80;62.20;;;;;;4949695;28;20040;-87
2022/02/12 11:04:38;;;;;;;1999.90;999.90;;;10.00;61.70;;;;;;4912731;28;1241456;-91
2022/02/12 11:07:05;;;;;;;1999.90;999.90;;;10.20;61.50;;;;;;4943877;28;20049;-83
2022/02/12 11:09:31;;;;;;;1999.90;999.90;;;10.40;61.10;;;;;;4955049;28;20039;-83
2022/02/12 11:12:07;;;;;;;1999.90;999.90;;;10.50;60.80;;;;;;4948792;28;20034;-83
2022/02/12 11:14:33;;;;;;;1999.90;999.90;;;10.30;60.40;;;;;;4950012;28;20509;-87
2022/02/12 11:17:11;;;;;;;1999.90;999.90;;;10.40;60.80;;;;;;4960677;28;20051;-86
2022/02/12 11:19:37;;;;;;;1999.90;999.90;;;10.60;60.90;;;;;;4953711;28;20062;-84
2022/02/12 11:22:03;;;;;;;1999.90;999.90;;;10.90;60.60;;;;;;4964445;28;20047;-84
2022/02/12 11:24:36;;;;;;;1999.90;999.90;;;11.20;60.20;;;;;;4954021;28;20031;-82
2022/02/12 11:27:21;;;;;;;1999.90;999.90;;;11.50;60.00;;;;;;4951082;29;20023;-88
2022/02/12 11:29:50;;;;;;;1999.90;999.90;;;11.60;59.80;;;;;;4950185;28;20031;-85
2022/02/12 11:32:24;;;;;;;1999.90;999.90;;;11.70;59.80;;;;;;4963070;28;20039;-85
2022/02/12 11:34:59;;;;;;;1999.90;999.90;;;11.80;60.00;;;;;;4962559;28;20039;-83
2022/02/12 11:37:30;;;;;;;1999.90;999.90;;;12.00;59.90;;;;;;4966744;28;20047;-84
2022/02/12 11:40:09;;;;;;;1999.90;999.90;;;12.10;59.60;;;;;;4949973;28;20039;-83
2022/02/12 11:42:45;;;;;;;1999.90;999.90;;;12.10;59.60;;;;;;4942317;28;20058;-86
2022/02/12 11:45:30;;;;;;;1999.90;999.90;;;12.20;59.70;;;;;;4955165;28;20364;-85
2022/02/12 11:48:22;;;;;;;1999.90;999.90;;;12.10;59.00;;;;;;4944609;28;20042;-86
2022/02/12 11:51:09;;;;;;;1999.90;999.90;;;11.90;59.40;;;;;;4937878;29;20048;-86
2022/02/12 11:53:39;;;;;;;1999.90;999.90;;;11.80;59.60;;;;;;4966753;28;20390;-87
2022/02/12 11:56:13;;;;;;;1999.90;999.90;;;11.60;59.40;;;;;;4945093;28;20051;-85
2022/02/12 11:58:43;;;;;;;1999.90;999.90;;;11.50;59.80;;;;;;4949383;28;20457;-84
2022/02/12 12:01:21;;;;;;;1999.90;999.90;;;11.50;60.00;;;;;;4952662;28;20027;-86
2022/02/12 12:04:11;;;;;;;1999.90;999.90;;;11.80;59.90;;;;;;4940330;29;20031;-86
2022/02/12 12:06:56;;;;;;;1999.90;999.90;;;12.10;59.60;;;;;;4951359;28;20046;-83
2022/02/12 12:09:22;;;;;;;1999.90;999.90;;;12.30;59.30;;;;;;4951785;28;20042;-86
2022/02/12 12:12:15;;;;;;;1999.90;999.90;;;12.40;59.20;;;;;;4951624;29;20034;-86
2022/02/12 12:14:41;;;;;;;1999.90;999.90;;;12.40;58.90;;;;;;4951070;28;20030;-84
2022/02/12 12:17:07;;;;;;;1999.90;999.90;;;12.30;58.90;;;;;;4943227;28;20445;-85
2022/02/12 12:19:34;;;;;;;1999.90;999.90;;;12.30;59.20;;;;;;4953393;28;20031;-84
2022/02/12 12:22:02;;;;;;;1999.90;999.90;;;12.30;59.10;;;;;;4960169;28;20042;-84
2022/02/12 12:24:28;;;;;;;1999.90;999.90;;;12.40;58.80;;;;;;4932242;28;20027;-84
2022/02/12 12:26:54;;;;;;;1999.90;999.90;;;12.50;58.90;;;;;;4964936;28;20043;-83
2022/02/12 12:32:31;;;;;;;1999.90;999.90;;;12.70;58.60;;;;;;4951169;28;20047;-86
2022/02/12 12:35:00;;;;;;;1999.90;999.90;;;12.60;58.30;;;;;;4946445;28;20028;-87
2022/02/12 12:37:27;;;;;;;1999.90;999.90;;;12.40;58.30;;;;;;4956105;28;20058;-88